Great Cacapon, West Virginia
Current Conditions -  °F | °C
As of 2:53 AM on Wednesday 26 Nov 2014 (Local Time) from KMRB Reporting Station
Overcast Overcast  
Wind Chill: 39°   Ceiling: 11000
Heat Index: 43°   Visibility: 10mi
Dew Point: 28°   Wind: 7mph
Humidity: 56%   Direction: 10°N
Pressure: 30.14"   Gusts: NA
Location:  39.62°N, 78.29°W
Report Text: KMRB 260753Z AUTO 01006KT 10SM OVC110 06/M02 A3014 RMK AO2 SLP209 T00611022 TSNO
Loading
Personal Weather Stations






























Interactive Weather Map New forecast layout! Learn more

10-Day Weather Forecast

Advertisements
Track Severe Weather on mobile